CCA823 ZJHK-ZHCC
Flight info
| Callsign | CCA823 |
|---|---|
| Flight time | 2h 18m |
| Altitude | 39098 |
| Route | AGTEL9XD AGTEL W71 LH R339 BHY W159 IVPUB/K0870S1250 W120 ENKUS R343 GOSMA W82 UPMAT W56 IGMIG IGM6U |
| Aircraft | A343/H-SDE2E3FGHIJ4J5M1RWXY/LB1D1 |
Departure
| Time | 2026-05-07 12:23 |
|---|---|
| Airport | Haikou Meilan International Airport (ZJHK) |
Arrival
| Time | 2026-05-07 14:41 |
|---|---|
| Airport | Zhengzhou Xinzheng International Airport (ZHCC) |
| Time | Latitude | Longitude | Altitude | Speed | Heading |
|---|---|---|---|---|---|
| 2026-05-07 12:05 | 19.94862 | 110.45603 | 62 ft | 0 kts | 191° |
| 2026-05-07 12:14 | 19.94884 | 110.45608 | 37 ft | 4 kts | 198° |
| 2026-05-07 12:14 | 19.94909 | 110.45619 | 60 ft | 4 kts | 208° |
| 2026-05-07 12:14 | 19.94932 | 110.45634 | 52 ft | 4 kts | 218° |
| 2026-05-07 12:14 | 19.94952 | 110.45653 | 52 ft | 4 kts | 232° |
| 2026-05-07 12:15 | 19.94965 | 110.45677 | 52 ft | 4 kts | 259° |
| 2026-05-07 12:15 | 19.94966 | 110.45686 | 52 ft | 0 kts | 268° |
| 2026-05-07 12:18 | 19.94966 | 110.45680 | 52 ft | 2 kts | 268° |
| 2026-05-07 12:18 | 19.94966 | 110.45659 | 52 ft | 4 kts | 272° |
| 2026-05-07 12:19 | 19.94974 | 110.45625 | 54 ft | 6 kts | 290° |
| 2026-05-07 12:19 | 19.95000 | 110.45591 | 53 ft | 7 kts | 312° |
| 2026-05-07 12:19 | 19.95038 | 110.45552 | 53 ft | 9 kts | 324° |
| 2026-05-07 12:19 | 19.95100 | 110.45534 | 55 ft | 10 kts | 355° |
| 2026-05-07 12:20 | 19.95174 | 110.45520 | 52 ft | 11 kts | 334° |
| 2026-05-07 12:20 | 19.95203 | 110.45447 | 59 ft | 12 kts | 274° |
| 2026-05-07 12:20 | 19.95204 | 110.45354 | 59 ft | 13 kts | 270° |
| 2026-05-07 12:20 | 19.95203 | 110.45249 | 58 ft | 15 kts | 270° |
| 2026-05-07 12:21 | 19.95203 | 110.45129 | 57 ft | 17 kts | 271° |
| 2026-05-07 12:21 | 19.95203 | 110.44995 | 56 ft | 19 kts | 269° |
| 2026-05-07 12:21 | 19.95211 | 110.44856 | 49 ft | 18 kts | 297° |
| 2026-05-07 12:21 | 19.95317 | 110.44832 | 49 ft | 18 kts | 18° |
| 2026-05-07 12:22 | 19.95371 | 110.44897 | 52 ft | 5 kts | 88° |
| 2026-05-07 12:22 | 19.95375 | 110.45090 | 57 ft | 57 kts | 89° |
| 2026-05-07 12:22 | 19.95374 | 110.45739 | 61 ft | 116 kts | 89° |
| 2026-05-07 12:22 | 19.95376 | 110.46770 | 64 ft | 162 kts | 90° |
| 2026-05-07 12:23 | 19.95388 | 110.48004 | 639 ft | 160 kts | 91° |
| 2026-05-07 12:23 | 19.95500 | 110.49169 | 1244 ft | 169 kts | 69° |
| 2026-05-07 12:23 | 19.96433 | 110.50074 | 1512 ft | 206 kts | 22° |
| 2026-05-07 12:23 | 19.97924 | 110.50021 | 1854 ft | 236 kts | 338° |
| 2026-05-07 12:24 | 19.99253 | 110.48915 | 2489 ft | 249 kts | 313° |
| 2026-05-07 12:24 | 20.00520 | 110.47675 | 3495 ft | 247 kts | 321° |
| 2026-05-07 12:24 | 20.01940 | 110.46649 | 4495 ft | 247 kts | 329° |
| 2026-05-07 12:24 | 20.03466 | 110.45804 | 5427 ft | 248 kts | 334° |
| 2026-05-07 12:25 | 20.05066 | 110.45070 | 6292 ft | 253 kts | 338° |
| 2026-05-07 12:25 | 20.06724 | 110.44396 | 7100 ft | 257 kts | 339° |
| 2026-05-07 12:25 | 20.08416 | 110.43754 | 7952 ft | 260 kts | 339° |
| 2026-05-07 12:25 | 20.10132 | 110.43128 | 8829 ft | 262 kts | 341° |
| 2026-05-07 12:26 | 20.11877 | 110.42512 | 9702 ft | 266 kts | 340° |
| 2026-05-07 12:26 | 20.13618 | 110.41905 | 10476 ft | 268 kts | 340° |
| 2026-05-07 12:26 | 20.15398 | 110.41284 | 11290 ft | 270 kts | 340° |
| 2026-05-07 12:26 | 20.17196 | 110.40656 | 12057 ft | 274 kts | 340° |
| 2026-05-07 12:27 | 20.19024 | 110.40017 | 12806 ft | 279 kts | 340° |
| 2026-05-07 12:27 | 20.20879 | 110.39368 | 13583 ft | 282 kts | 340° |
| 2026-05-07 12:27 | 20.22757 | 110.38711 | 14302 ft | 285 kts | 340° |
| 2026-05-07 12:27 | 20.24653 | 110.38048 | 15010 ft | 288 kts | 339° |
| 2026-05-07 12:28 | 20.26580 | 110.37380 | 15600 ft | 297 kts | 340° |
| 2026-05-07 12:28 | 20.28578 | 110.36693 | 15888 ft | 315 kts | 340° |
| 2026-05-07 12:28 | 20.30724 | 110.35955 | 16154 ft | 333 kts | 340° |
| 2026-05-07 12:28 | 20.32988 | 110.35177 | 16408 ft | 350 kts | 340° |
| 2026-05-07 12:29 | 20.35359 | 110.34362 | 16667 ft | 367 kts | 340° |
| 2026-05-07 12:29 | 20.37840 | 110.33511 | 16892 ft | 382 kts | 340° |
| 2026-05-07 12:30 | 20.45753 | 110.30796 | 18098 ft | 407 kts | 340° |
| 2026-05-07 12:30 | 20.48528 | 110.29990 | 18578 ft | 412 kts | 346° |
| 2026-05-07 12:30 | 20.51353 | 110.29580 | 19076 ft | 417 kts | 355° |
| 2026-05-07 12:30 | 20.54268 | 110.29550 | 19596 ft | 421 kts | 359° |
| 2026-05-07 12:31 | 20.57205 | 110.29674 | 20111 ft | 424 kts | 1° |
| 2026-05-07 12:31 | 20.60161 | 110.29875 | 20652 ft | 427 kts | 2° |
| 2026-05-07 12:31 | 20.63129 | 110.30104 | 21163 ft | 429 kts | 2° |
| 2026-05-07 12:31 | 20.66117 | 110.30337 | 21669 ft | 432 kts | 2° |
| 2026-05-07 12:32 | 20.69123 | 110.30561 | 22157 ft | 434 kts | 2° |
| 2026-05-07 12:32 | 20.72149 | 110.30776 | 22639 ft | 437 kts | 2° |
| 2026-05-07 12:32 | 20.75194 | 110.30983 | 23112 ft | 440 kts | 2° |
| 2026-05-07 12:32 | 20.78256 | 110.31186 | 23566 ft | 442 kts | 2° |
| 2026-05-07 12:33 | 20.84402 | 110.31587 | 24312 ft | 448 kts | 1° |
| 2026-05-07 12:33 | 20.87523 | 110.31791 | 24681 ft | 451 kts | 1° |
| 2026-05-07 12:33 | 20.90665 | 110.31996 | 25050 ft | 454 kts | 1° |
| 2026-05-07 12:34 | 20.93826 | 110.32203 | 25411 ft | 457 kts | 1° |
| 2026-05-07 12:34 | 20.97006 | 110.32412 | 25787 ft | 459 kts | 1° |
| 2026-05-07 12:34 | 21.00167 | 110.32622 | 26155 ft | 462 kts | 1° |
| 2026-05-07 12:34 | 21.03385 | 110.32661 | 26515 ft | 463 kts | 355° |
| 2026-05-07 12:35 | 21.06577 | 110.32221 | 26874 ft | 464 kts | 346° |
| 2026-05-07 12:35 | 21.09673 | 110.31256 | 27230 ft | 464 kts | 337° |
| 2026-05-07 12:35 | 21.12588 | 110.29761 | 27595 ft | 465 kts | 328° |
| 2026-05-07 12:35 | 21.15230 | 110.27765 | 27964 ft | 466 kts | 319° |
| 2026-05-07 12:36 | 21.17527 | 110.25319 | 28317 ft | 467 kts | 309° |
| 2026-05-07 12:36 | 21.19416 | 110.22482 | 28668 ft | 469 kts | 300° |
| 2026-05-07 12:36 | 21.20853 | 110.19394 | 29010 ft | 471 kts | 294° |
| 2026-05-07 12:36 | 21.22326 | 110.16253 | 29335 ft | 473 kts | 297° |
| 2026-05-07 12:37 | 21.23837 | 110.13106 | 29663 ft | 476 kts | 297° |
| 2026-05-07 12:37 | 21.25362 | 110.09948 | 29956 ft | 478 kts | 297° |
| 2026-05-07 12:37 | 21.26911 | 110.06781 | 30232 ft | 481 kts | 297° |
| 2026-05-07 12:37 | 21.28478 | 110.03617 | 30596 ft | 480 kts | 297° |
| 2026-05-07 12:38 | 21.30048 | 110.00473 | 31060 ft | 477 kts | 297° |
| 2026-05-07 12:38 | 21.31616 | 109.97348 | 31481 ft | 475 kts | 298° |
| 2026-05-07 12:38 | 21.33179 | 109.94236 | 31897 ft | 473 kts | 298° |
| 2026-05-07 12:38 | 21.34713 | 109.91182 | 32299 ft | 471 kts | 298° |
| 2026-05-07 12:39 | 21.36264 | 109.88093 | 32698 ft | 469 kts | 298° |
| 2026-05-07 12:39 | 21.37806 | 109.85015 | 33094 ft | 468 kts | 298° |
| 2026-05-07 12:39 | 21.39343 | 109.81946 | 33473 ft | 466 kts | 298° |
| 2026-05-07 12:39 | 21.40873 | 109.78887 | 33865 ft | 464 kts | 297° |
| 2026-05-07 12:40 | 21.42395 | 109.75844 | 34280 ft | 460 kts | 297° |
| 2026-05-07 12:40 | 21.43906 | 109.72819 | 34569 ft | 460 kts | 297° |
| 2026-05-07 12:40 | 21.45415 | 109.69797 | 34826 ft | 460 kts | 297° |
| 2026-05-07 12:40 | 21.46926 | 109.66769 | 35082 ft | 460 kts | 297° |
| 2026-05-07 12:41 | 21.48416 | 109.63780 | 35334 ft | 460 kts | 297° |
| 2026-05-07 12:41 | 21.49924 | 109.60755 | 35596 ft | 459 kts | 297° |
| 2026-05-07 12:41 | 21.51430 | 109.57733 | 35856 ft | 459 kts | 297° |
| 2026-05-07 12:41 | 21.52935 | 109.54711 | 36112 ft | 459 kts | 297° |
| 2026-05-07 12:42 | 21.54551 | 109.51757 | 36350 ft | 459 kts | 303° |
| 2026-05-07 12:42 | 21.56497 | 109.49039 | 36599 ft | 460 kts | 310° |
| 2026-05-07 12:42 | 21.58791 | 109.46644 | 36851 ft | 461 kts | 319° |
| 2026-05-07 12:42 | 21.61376 | 109.44678 | 37144 ft | 462 kts | 328° |
| 2026-05-07 12:43 | 21.64260 | 109.43147 | 37352 ft | 465 kts | 337° |
| 2026-05-07 12:43 | 21.67360 | 109.42131 | 37569 ft | 468 kts | 346° |
| 2026-05-07 12:43 | 21.70579 | 109.41546 | 37817 ft | 469 kts | 349° |
| 2026-05-07 12:43 | 21.73817 | 109.41090 | 38056 ft | 469 kts | 351° |
| 2026-05-07 12:44 | 21.77060 | 109.40689 | 38294 ft | 469 kts | 351° |
| 2026-05-07 12:44 | 21.80303 | 109.40304 | 38527 ft | 469 kts | 351° |
| 2026-05-07 12:44 | 21.83542 | 109.39917 | 38725 ft | 469 kts | 351° |
| 2026-05-07 12:44 | 21.86780 | 109.39520 | 38916 ft | 468 kts | 351° |
| 2026-05-07 12:45 | 21.93227 | 109.38702 | 39009 ft | 469 kts | 351° |
| 2026-05-07 12:45 | 21.99683 | 109.37866 | 39003 ft | 466 kts | 351° |
| 2026-05-07 12:46 | 22.06118 | 109.37028 | 39006 ft | 466 kts | 351° |
| 2026-05-07 12:46 | 22.12557 | 109.36190 | 39006 ft | 466 kts | 351° |
| 2026-05-07 12:47 | 22.18953 | 109.35358 | 39009 ft | 466 kts | 351° |
| 2026-05-07 12:47 | 22.25398 | 109.34549 | 39005 ft | 467 kts | 354° |
| 2026-05-07 12:48 | 22.31922 | 109.34942 | 39010 ft | 473 kts | 6° |
| 2026-05-07 12:48 | 22.38428 | 109.36120 | 39012 ft | 475 kts | 8° |
| 2026-05-07 12:49 | 22.44885 | 109.37422 | 39011 ft | 475 kts | 8° |
| 2026-05-07 12:49 | 22.51389 | 109.38732 | 39011 ft | 475 kts | 8° |
| 2026-05-07 12:50 | 22.57890 | 109.40022 | 39019 ft | 476 kts | 7° |
| 2026-05-07 12:50 | 22.64366 | 109.41297 | 39016 ft | 476 kts | 7° |
| 2026-05-07 12:51 | 22.70889 | 109.42582 | 39013 ft | 477 kts | 7° |
| 2026-05-07 12:51 | 22.77416 | 109.43872 | 39015 ft | 477 kts | 7° |
| 2026-05-07 12:52 | 22.83941 | 109.45162 | 39015 ft | 477 kts | 7° |
| 2026-05-07 12:52 | 22.90436 | 109.46444 | 39009 ft | 479 kts | 7° |
| 2026-05-07 12:53 | 22.96990 | 109.47740 | 39014 ft | 479 kts | 7° |
| 2026-05-07 12:53 | 23.03537 | 109.49041 | 39017 ft | 478 kts | 7° |
| 2026-05-07 12:54 | 23.10091 | 109.50343 | 39014 ft | 478 kts | 7° |
| 2026-05-07 12:54 | 23.16597 | 109.51637 | 39020 ft | 479 kts | 6° |
| 2026-05-07 12:55 | 23.23161 | 109.52941 | 39017 ft | 480 kts | 6° |
| 2026-05-07 12:55 | 23.29741 | 109.54251 | 39019 ft | 481 kts | 6° |
| 2026-05-07 12:56 | 23.36319 | 109.55563 | 39016 ft | 481 kts | 6° |
| 2026-05-07 12:56 | 23.42856 | 109.56868 | 39014 ft | 481 kts | 6° |
| 2026-05-07 12:57 | 23.49442 | 109.58184 | 39013 ft | 482 kts | 5° |
| 2026-05-07 12:57 | 23.56049 | 109.59504 | 39014 ft | 483 kts | 6° |
| 2026-05-07 12:58 | 23.62656 | 109.60827 | 39013 ft | 483 kts | 5° |
| 2026-05-07 12:58 | 23.69224 | 109.62146 | 39014 ft | 483 kts | 6° |
| 2026-05-07 12:59 | 23.75834 | 109.63472 | 39020 ft | 483 kts | 5° |
| 2026-05-07 12:59 | 23.82427 | 109.64792 | 39015 ft | 481 kts | 5° |
| 2026-05-07 13:00 | 23.89007 | 109.66111 | 39016 ft | 481 kts | 5° |
| 2026-05-07 13:00 | 23.95540 | 109.67424 | 39023 ft | 480 kts | 5° |
| 2026-05-07 13:01 | 24.02124 | 109.68747 | 39022 ft | 481 kts | 5° |
| 2026-05-07 13:01 | 24.08707 | 109.70072 | 39017 ft | 481 kts | 5° |
| 2026-05-07 13:02 | 24.15240 | 109.71390 | 39017 ft | 481 kts | 5° |
| 2026-05-07 13:02 | 24.21818 | 109.72717 | 39017 ft | 481 kts | 5° |
| 2026-05-07 13:03 | 24.28400 | 109.74046 | 39018 ft | 481 kts | 5° |
| 2026-05-07 13:03 | 24.34979 | 109.75376 | 39022 ft | 480 kts | 5° |
| 2026-05-07 13:04 | 24.41488 | 109.76695 | 39019 ft | 478 kts | 5° |
| 2026-05-07 13:04 | 24.48025 | 109.78020 | 39033 ft | 478 kts | 5° |
| 2026-05-07 13:05 | 24.54563 | 109.79346 | 39028 ft | 478 kts | 5° |
| 2026-05-07 13:05 | 24.61103 | 109.80674 | 39051 ft | 478 kts | 5° |
| 2026-05-07 13:06 | 24.67512 | 109.82507 | 39041 ft | 486 kts | 17° |
| 2026-05-07 13:06 | 24.73470 | 109.86174 | 39042 ft | 494 kts | 27° |
| 2026-05-07 13:07 | 24.79204 | 109.90382 | 39045 ft | 496 kts | 29° |
| 2026-05-07 13:07 | 24.84898 | 109.94673 | 39047 ft | 496 kts | 29° |
| 2026-05-07 13:08 | 24.90605 | 109.98955 | 39059 ft | 496 kts | 28° |
| 2026-05-07 13:08 | 24.96276 | 110.03181 | 39058 ft | 495 kts | 28° |
| 2026-05-07 13:09 | 25.01982 | 110.07421 | 39066 ft | 495 kts | 28° |
| 2026-05-07 13:09 | 25.07687 | 110.11669 | 39063 ft | 495 kts | 28° |
| 2026-05-07 13:10 | 25.13396 | 110.15926 | 39067 ft | 495 kts | 28° |
| 2026-05-07 13:10 | 25.19064 | 110.20160 | 39068 ft | 495 kts | 28° |
| 2026-05-07 13:11 | 25.24767 | 110.24421 | 39065 ft | 495 kts | 28° |
| 2026-05-07 13:11 | 25.30480 | 110.28657 | 39071 ft | 495 kts | 28° |
| 2026-05-07 13:12 | 25.36199 | 110.32900 | 39079 ft | 495 kts | 28° |
| 2026-05-07 13:12 | 25.41871 | 110.37120 | 39102 ft | 495 kts | 28° |
| 2026-05-07 13:13 | 25.47587 | 110.41367 | 39092 ft | 495 kts | 28° |
| 2026-05-07 13:13 | 25.53320 | 110.45577 | 39103 ft | 495 kts | 28° |
| 2026-05-07 13:14 | 25.59064 | 110.49767 | 39110 ft | 494 kts | 27° |
| 2026-05-07 13:14 | 25.64847 | 110.53761 | 39117 ft | 493 kts | 26° |
| 2026-05-07 13:15 | 25.70687 | 110.57748 | 39123 ft | 493 kts | 26° |
| 2026-05-07 13:15 | 25.76504 | 110.61765 | 39141 ft | 493 kts | 26° |
| 2026-05-07 13:16 | 25.82355 | 110.65742 | 39138 ft | 493 kts | 25° |
| 2026-05-07 13:16 | 25.88228 | 110.69682 | 39143 ft | 494 kts | 25° |
| 2026-05-07 13:17 | 25.94058 | 110.73617 | 39166 ft | 493 kts | 26° |
| 2026-05-07 13:17 | 25.99915 | 110.77581 | 39146 ft | 493 kts | 26° |
| 2026-05-07 13:18 | 26.05763 | 110.81556 | 39158 ft | 493 kts | 26° |
| 2026-05-07 13:18 | 26.11569 | 110.85506 | 39160 ft | 492 kts | 25° |
| 2026-05-07 13:19 | 26.17421 | 110.89468 | 39165 ft | 492 kts | 25° |
| 2026-05-07 13:19 | 26.23272 | 110.93435 | 39187 ft | 492 kts | 25° |
| 2026-05-07 13:20 | 26.29125 | 110.97392 | 39166 ft | 492 kts | 25° |
| 2026-05-07 13:20 | 26.34972 | 111.01374 | 39165 ft | 493 kts | 25° |
| 2026-05-07 13:21 | 26.40775 | 111.05329 | 39171 ft | 492 kts | 25° |
| 2026-05-07 13:21 | 26.46621 | 111.09319 | 39177 ft | 492 kts | 26° |
| 2026-05-07 13:22 | 26.52466 | 111.13317 | 39177 ft | 493 kts | 25° |
| 2026-05-07 13:22 | 26.58284 | 111.17292 | 39167 ft | 493 kts | 25° |
| 2026-05-07 13:23 | 26.64069 | 111.21411 | 39165 ft | 494 kts | 27° |
| 2026-05-07 13:23 | 26.69797 | 111.25658 | 39172 ft | 494 kts | 27° |
| 2026-05-07 13:24 | 26.75533 | 111.29905 | 39161 ft | 495 kts | 27° |
| 2026-05-07 13:24 | 26.81244 | 111.34104 | 39161 ft | 494 kts | 27° |
| 2026-05-07 13:25 | 26.86995 | 111.38325 | 39167 ft | 494 kts | 27° |
| 2026-05-07 13:25 | 26.92742 | 111.42550 | 39158 ft | 494 kts | 27° |
| 2026-05-07 13:26 | 26.98605 | 111.46510 | 39167 ft | 491 kts | 24° |
| 2026-05-07 13:26 | 27.04550 | 111.50315 | 39160 ft | 493 kts | 23° |
| 2026-05-07 13:27 | 27.10452 | 111.54136 | 39158 ft | 493 kts | 24° |
| 2026-05-07 13:27 | 27.16380 | 111.58030 | 39159 ft | 493 kts | 24° |
| 2026-05-07 13:28 | 27.22280 | 111.62006 | 39184 ft | 495 kts | 25° |
| 2026-05-07 13:28 | 27.28106 | 111.66060 | 39169 ft | 497 kts | 25° |
| 2026-05-07 13:29 | 27.33990 | 111.70160 | 39169 ft | 497 kts | 25° |
| 2026-05-07 13:29 | 27.39878 | 111.74248 | 39176 ft | 497 kts | 25° |
| 2026-05-07 13:30 | 27.45769 | 111.78337 | 39167 ft | 497 kts | 25° |
| 2026-05-07 13:30 | 27.51626 | 111.82396 | 39175 ft | 498 kts | 24° |
| 2026-05-07 13:31 | 27.57528 | 111.86489 | 39175 ft | 498 kts | 25° |
| 2026-05-07 13:31 | 27.63431 | 111.90599 | 39175 ft | 499 kts | 25° |
| 2026-05-07 13:32 | 27.69334 | 111.94718 | 39172 ft | 499 kts | 25° |
| 2026-05-07 13:32 | 27.75197 | 111.98813 | 39176 ft | 499 kts | 24° |
| 2026-05-07 13:33 | 27.81104 | 112.02945 | 39181 ft | 500 kts | 24° |
| 2026-05-07 13:33 | 27.87016 | 112.07075 | 39167 ft | 500 kts | 24° |
| 2026-05-07 13:34 | 27.95884 | 112.13275 | 39178 ft | 500 kts | 24° |
| 2026-05-07 13:35 | 28.01769 | 112.17370 | 39186 ft | 500 kts | 23° |
| 2026-05-07 13:35 | 28.07714 | 112.21455 | 39180 ft | 501 kts | 24° |
| 2026-05-07 13:36 | 28.13494 | 112.25946 | 39180 ft | 506 kts | 28° |
| 2026-05-07 13:36 | 28.19158 | 112.30696 | 39186 ft | 506 kts | 29° |
| 2026-05-07 13:37 | 28.24843 | 112.35322 | 39181 ft | 505 kts | 27° |
| 2026-05-07 13:37 | 28.30602 | 112.39888 | 39187 ft | 505 kts | 27° |
| 2026-05-07 13:38 | 28.36371 | 112.44452 | 39179 ft | 506 kts | 27° |
| 2026-05-07 13:38 | 28.42137 | 112.49033 | 39175 ft | 506 kts | 27° |
| 2026-05-07 13:39 | 28.47855 | 112.53590 | 39186 ft | 506 kts | 27° |
| 2026-05-07 13:39 | 28.53619 | 112.58191 | 39180 ft | 507 kts | 27° |
| 2026-05-07 13:40 | 28.59388 | 112.62803 | 39176 ft | 507 kts | 27° |
| 2026-05-07 13:40 | 28.65156 | 112.67421 | 39186 ft | 507 kts | 27° |
| 2026-05-07 13:41 | 28.70886 | 112.72014 | 39192 ft | 507 kts | 26° |
| 2026-05-07 13:41 | 28.76662 | 112.76649 | 39178 ft | 509 kts | 27° |
| 2026-05-07 13:42 | 28.82449 | 112.81300 | 39178 ft | 508 kts | 27° |
| 2026-05-07 13:42 | 28.88224 | 112.85950 | 39177 ft | 508 kts | 27° |
| 2026-05-07 13:43 | 28.93956 | 112.90570 | 39210 ft | 508 kts | 26° |
| 2026-05-07 13:43 | 28.99735 | 112.95233 | 39183 ft | 509 kts | 26° |
| 2026-05-07 13:44 | 29.05525 | 112.99911 | 39179 ft | 510 kts | 26° |
| 2026-05-07 13:44 | 29.11311 | 113.04595 | 39174 ft | 510 kts | 26° |
| 2026-05-07 13:45 | 29.17060 | 113.09255 | 39175 ft | 510 kts | 26° |
| 2026-05-07 13:45 | 29.22841 | 113.13948 | 39181 ft | 509 kts | 27° |
| 2026-05-07 13:46 | 29.28619 | 113.18635 | 39180 ft | 509 kts | 27° |
| 2026-05-07 13:46 | 29.34407 | 113.23313 | 39180 ft | 506 kts | 23° |
| 2026-05-07 13:47 | 29.40442 | 113.27186 | 39215 ft | 499 kts | 19° |
| 2026-05-07 13:47 | 29.46592 | 113.30872 | 39180 ft | 499 kts | 18° |
| 2026-05-07 13:48 | 29.52762 | 113.34527 | 39187 ft | 499 kts | 18° |
| 2026-05-07 13:48 | 29.58930 | 113.38196 | 39188 ft | 499 kts | 18° |
| 2026-05-07 13:49 | 29.65048 | 113.41854 | 39203 ft | 499 kts | 18° |
| 2026-05-07 13:49 | 29.71211 | 113.45547 | 39190 ft | 499 kts | 18° |
| 2026-05-07 13:50 | 29.77370 | 113.49243 | 39192 ft | 499 kts | 18° |
| 2026-05-07 13:50 | 29.83525 | 113.52941 | 39191 ft | 499 kts | 18° |
| 2026-05-07 13:51 | 29.89639 | 113.56619 | 39202 ft | 499 kts | 18° |
| 2026-05-07 13:51 | 29.95802 | 113.60323 | 39190 ft | 499 kts | 17° |
| 2026-05-07 13:52 | 30.02081 | 113.63577 | 39192 ft | 492 kts | 13° |
| 2026-05-07 13:52 | 30.08412 | 113.66584 | 39194 ft | 492 kts | 12° |
| 2026-05-07 13:53 | 30.14733 | 113.69646 | 39201 ft | 493 kts | 13° |
| 2026-05-07 13:53 | 30.20998 | 113.72756 | 39197 ft | 494 kts | 13° |
| 2026-05-07 13:54 | 30.27302 | 113.75916 | 39190 ft | 494 kts | 13° |
| 2026-05-07 13:54 | 30.33610 | 113.79084 | 39195 ft | 494 kts | 13° |
| 2026-05-07 13:55 | 30.39919 | 113.82253 | 39199 ft | 494 kts | 13° |
| 2026-05-07 13:55 | 30.46187 | 113.85402 | 39199 ft | 495 kts | 13° |
| 2026-05-07 13:56 | 30.52503 | 113.88582 | 39196 ft | 495 kts | 13° |
| 2026-05-07 13:56 | 30.58820 | 113.91771 | 39199 ft | 495 kts | 13° |
| 2026-05-07 13:57 | 30.65140 | 113.94958 | 39203 ft | 495 kts | 13° |
| 2026-05-07 13:57 | 30.71494 | 113.98041 | 39202 ft | 496 kts | 13° |
| 2026-05-07 13:58 | 30.77734 | 114.01431 | 39201 ft | 500 kts | 16° |
| 2026-05-07 13:58 | 30.83990 | 114.04973 | 39222 ft | 499 kts | 15° |
| 2026-05-07 13:59 | 30.90275 | 114.08406 | 39203 ft | 499 kts | 14° |
| 2026-05-07 13:59 | 30.96570 | 114.11811 | 39210 ft | 499 kts | 14° |
| 2026-05-07 14:00 | 31.02822 | 114.15198 | 39214 ft | 499 kts | 14° |
| 2026-05-07 14:00 | 31.09111 | 114.18620 | 39218 ft | 499 kts | 14° |
| 2026-05-07 14:01 | 31.15400 | 114.22038 | 39216 ft | 499 kts | 15° |
| 2026-05-07 14:01 | 31.21691 | 114.25467 | 39212 ft | 499 kts | 15° |
| 2026-05-07 14:02 | 31.27945 | 114.28879 | 39215 ft | 499 kts | 15° |
| 2026-05-07 14:02 | 31.34281 | 114.32064 | 39223 ft | 487 kts | 6° |
| 2026-05-07 14:02 | 31.37532 | 114.32943 | 39216 ft | 472 kts | 357° |
| 2026-05-07 14:03 | 31.40766 | 114.33296 | 39219 ft | 465 kts | 353° |
| 2026-05-07 14:03 | 31.47163 | 114.33598 | 39218 ft | 462 kts | 351° |
| 2026-05-07 14:04 | 31.53585 | 114.33741 | 39225 ft | 461 kts | 350° |
| 2026-05-07 14:04 | 31.60009 | 114.33890 | 39228 ft | 462 kts | 351° |
| 2026-05-07 14:05 | 31.66437 | 114.34067 | 39232 ft | 462 kts | 351° |
| 2026-05-07 14:05 | 31.72826 | 114.34255 | 39240 ft | 462 kts | 351° |
| 2026-05-07 14:06 | 31.79261 | 114.34461 | 39256 ft | 463 kts | 351° |
| 2026-05-07 14:06 | 31.85686 | 114.34668 | 39239 ft | 461 kts | 351° |
| 2026-05-07 14:07 | 31.92100 | 114.34856 | 39244 ft | 461 kts | 351° |
| 2026-05-07 14:07 | 31.98464 | 114.35040 | 39245 ft | 461 kts | 351° |
| 2026-05-07 14:08 | 32.04878 | 114.35231 | 39259 ft | 461 kts | 351° |
| 2026-05-07 14:08 | 32.11280 | 114.35426 | 39249 ft | 460 kts | 351° |
| 2026-05-07 14:09 | 32.17683 | 114.35621 | 39249 ft | 460 kts | 351° |
| 2026-05-07 14:09 | 32.24024 | 114.35815 | 38974 ft | 458 kts | 351° |
| 2026-05-07 14:09 | 32.27218 | 114.35921 | 38737 ft | 461 kts | 352° |
| 2026-05-07 14:10 | 32.30436 | 114.36136 | 38506 ft | 465 kts | 353° |
| 2026-05-07 14:10 | 32.33671 | 114.36440 | 38233 ft | 467 kts | 354° |
| 2026-05-07 14:10 | 32.36913 | 114.36777 | 37964 ft | 469 kts | 355° |
| 2026-05-07 14:10 | 32.40168 | 114.37117 | 37701 ft | 470 kts | 355° |
| 2026-05-07 14:11 | 32.43384 | 114.37443 | 37447 ft | 470 kts | 355° |
| 2026-05-07 14:11 | 32.46648 | 114.37761 | 37184 ft | 471 kts | 355° |
| 2026-05-07 14:11 | 32.49924 | 114.38070 | 36929 ft | 473 kts | 355° |
| 2026-05-07 14:11 | 32.53203 | 114.38373 | 36715 ft | 474 kts | 355° |
| 2026-05-07 14:12 | 32.56494 | 114.38674 | 36465 ft | 475 kts | 355° |
| 2026-05-07 14:12 | 32.59795 | 114.38975 | 36213 ft | 476 kts | 355° |
| 2026-05-07 14:12 | 32.63106 | 114.39277 | 35966 ft | 477 kts | 355° |
| 2026-05-07 14:12 | 32.66419 | 114.39583 | 35728 ft | 479 kts | 355° |
| 2026-05-07 14:13 | 32.69745 | 114.39894 | 35490 ft | 480 kts | 355° |
| 2026-05-07 14:13 | 32.73078 | 114.40203 | 35250 ft | 482 kts | 356° |
| 2026-05-07 14:13 | 32.76381 | 114.40510 | 35039 ft | 483 kts | 356° |
| 2026-05-07 14:13 | 32.79736 | 114.40822 | 34802 ft | 484 kts | 356° |
| 2026-05-07 14:14 | 32.83098 | 114.41135 | 34570 ft | 485 kts | 356° |
| 2026-05-07 14:14 | 32.86471 | 114.41450 | 34341 ft | 487 kts | 356° |
| 2026-05-07 14:14 | 32.89851 | 114.41765 | 34107 ft | 488 kts | 356° |
| 2026-05-07 14:14 | 32.93242 | 114.42083 | 33840 ft | 489 kts | 356° |
| 2026-05-07 14:15 | 32.96638 | 114.42401 | 33576 ft | 489 kts | 356° |
| 2026-05-07 14:15 | 33.00030 | 114.42719 | 33316 ft | 489 kts | 356° |
| 2026-05-07 14:15 | 33.03372 | 114.43033 | 33094 ft | 488 kts | 355° |
| 2026-05-07 14:15 | 33.06750 | 114.43351 | 32842 ft | 486 kts | 355° |
| 2026-05-07 14:16 | 33.10121 | 114.43668 | 32590 ft | 486 kts | 355° |
| 2026-05-07 14:16 | 33.13490 | 114.43984 | 32339 ft | 485 kts | 355° |
| 2026-05-07 14:16 | 33.16854 | 114.44300 | 32091 ft | 485 kts | 355° |
| 2026-05-07 14:16 | 33.20217 | 114.44616 | 31844 ft | 485 kts | 355° |
| 2026-05-07 14:17 | 33.23577 | 114.44930 | 31598 ft | 484 kts | 355° |
| 2026-05-07 14:17 | 33.26901 | 114.44938 | 31381 ft | 471 kts | 346° |
| 2026-05-07 14:17 | 33.30039 | 114.44135 | 31140 ft | 454 kts | 333° |
| 2026-05-07 14:17 | 33.32837 | 114.42604 | 30904 ft | 445 kts | 324° |
| 2026-05-07 14:18 | 33.35528 | 114.40778 | 30692 ft | 445 kts | 323° |
| 2026-05-07 14:18 | 33.38205 | 114.38912 | 30445 ft | 445 kts | 323° |
| 2026-05-07 14:18 | 33.40879 | 114.37049 | 30214 ft | 445 kts | 324° |
| 2026-05-07 14:18 | 33.43557 | 114.35186 | 29942 ft | 445 kts | 324° |
| 2026-05-07 14:19 | 33.46234 | 114.33329 | 29678 ft | 444 kts | 324° |
| 2026-05-07 14:19 | 33.48903 | 114.31477 | 29402 ft | 442 kts | 324° |
| 2026-05-07 14:19 | 33.51561 | 114.29633 | 29126 ft | 441 kts | 324° |
| 2026-05-07 14:19 | 33.54172 | 114.27821 | 28898 ft | 438 kts | 323° |
| 2026-05-07 14:20 | 33.56800 | 114.25996 | 28647 ft | 436 kts | 323° |
| 2026-05-07 14:20 | 33.59418 | 114.24176 | 28384 ft | 434 kts | 323° |
| 2026-05-07 14:20 | 33.62025 | 114.22362 | 28128 ft | 433 kts | 323° |
| 2026-05-07 14:20 | 33.64623 | 114.20553 | 27874 ft | 431 kts | 323° |
| 2026-05-07 14:21 | 33.67215 | 114.18748 | 27617 ft | 430 kts | 323° |
| 2026-05-07 14:21 | 33.69777 | 114.16965 | 27200 ft | 422 kts | 323° |
| 2026-05-07 14:21 | 33.72299 | 114.15208 | 26659 ft | 417 kts | 323° |
| 2026-05-07 14:21 | 33.74760 | 114.13491 | 26105 ft | 413 kts | 323° |
| 2026-05-07 14:22 | 33.77231 | 114.11765 | 25538 ft | 409 kts | 323° |
| 2026-05-07 14:22 | 33.79682 | 114.10051 | 24976 ft | 406 kts | 323° |
| 2026-05-07 14:22 | 33.82114 | 114.08351 | 24419 ft | 403 kts | 324° |
| 2026-05-07 14:22 | 33.84533 | 114.06657 | 23847 ft | 401 kts | 324° |
| 2026-05-07 14:23 | 33.86962 | 114.05015 | 23175 ft | 401 kts | 329° |
| 2026-05-07 14:23 | 33.89585 | 114.03819 | 22510 ft | 405 kts | 339° |
| 2026-05-07 14:23 | 33.92300 | 114.02930 | 21869 ft | 404 kts | 341° |
| 2026-05-07 14:23 | 33.95012 | 114.02093 | 21239 ft | 401 kts | 341° |
| 2026-05-07 14:24 | 33.97672 | 114.01271 | 20622 ft | 399 kts | 342° |
| 2026-05-07 14:24 | 34.00346 | 114.00440 | 19999 ft | 396 kts | 342° |
| 2026-05-07 14:24 | 34.03010 | 113.99609 | 19390 ft | 394 kts | 343° |
| 2026-05-07 14:24 | 34.05654 | 113.98781 | 18766 ft | 392 kts | 343° |
| 2026-05-07 14:25 | 34.08285 | 113.97956 | 18111 ft | 390 kts | 344° |
| 2026-05-07 14:25 | 34.10896 | 113.97137 | 17471 ft | 386 kts | 344° |
| 2026-05-07 14:25 | 34.13445 | 113.96204 | 16873 ft | 381 kts | 337° |
| 2026-05-07 14:25 | 34.15814 | 113.94813 | 16281 ft | 377 kts | 331° |
| 2026-05-07 14:26 | 34.18096 | 113.93289 | 15687 ft | 373 kts | 330° |
| 2026-05-07 14:26 | 34.20353 | 113.91761 | 15092 ft | 371 kts | 330° |
| 2026-05-07 14:26 | 34.22596 | 113.90245 | 14511 ft | 368 kts | 330° |
| 2026-05-07 14:26 | 34.24796 | 113.88761 | 13918 ft | 366 kts | 331° |
| 2026-05-07 14:27 | 34.27013 | 113.87267 | 13294 ft | 363 kts | 331° |
| 2026-05-07 14:27 | 34.28499 | 113.86266 | 12885 ft | 361 kts | 331° |
| 2026-05-07 14:27 | 34.30651 | 113.84816 | 12314 ft | 357 kts | 331° |
| 2026-05-07 14:27 | 34.33535 | 113.82872 | 11545 ft | 352 kts | 331° |
| 2026-05-07 14:28 | 34.34942 | 113.81924 | 11305 ft | 345 kts | 332° |
| 2026-05-07 14:28 | 34.36989 | 113.80543 | 11202 ft | 329 kts | 332° |
| 2026-05-07 14:28 | 34.39554 | 113.78812 | 11065 ft | 309 kts | 332° |
| 2026-05-07 14:28 | 34.40805 | 113.77965 | 10995 ft | 300 kts | 331° |
| 2026-05-07 14:29 | 34.42910 | 113.75943 | 10844 ft | 288 kts | 311° |
| 2026-05-07 14:29 | 34.43908 | 113.73867 | 10702 ft | 283 kts | 297° |
| 2026-05-07 14:29 | 34.44417 | 113.72429 | 10609 ft | 278 kts | 296° |
| 2026-05-07 14:29 | 34.45144 | 113.70269 | 10307 ft | 277 kts | 296° |
| 2026-05-07 14:30 | 34.45868 | 113.68114 | 10024 ft | 276 kts | 296° |
| 2026-05-07 14:30 | 34.46595 | 113.65969 | 9681 ft | 274 kts | 296° |
| 2026-05-07 14:30 | 34.47318 | 113.63836 | 9331 ft | 273 kts | 295° |
| 2026-05-07 14:30 | 34.48031 | 113.61704 | 8988 ft | 272 kts | 295° |
| 2026-05-07 14:31 | 34.48980 | 113.58903 | 8528 ft | 271 kts | 295° |
| 2026-05-07 14:31 | 34.49455 | 113.57505 | 8296 ft | 270 kts | 295° |
| 2026-05-07 14:31 | 34.50169 | 113.55407 | 8009 ft | 267 kts | 295° |
| 2026-05-07 14:31 | 34.50865 | 113.53359 | 7873 ft | 258 kts | 295° |
| 2026-05-07 14:32 | 34.51531 | 113.51372 | 7748 ft | 250 kts | 295° |
| 2026-05-07 14:32 | 34.52175 | 113.49455 | 7652 ft | 241 kts | 296° |
| 2026-05-07 14:32 | 34.53011 | 113.47762 | 7525 ft | 229 kts | 316° |
| 2026-05-07 14:32 | 34.54326 | 113.46786 | 7397 ft | 221 kts | 345° |
| 2026-05-07 14:33 | 34.55833 | 113.46762 | 7187 ft | 218 kts | 11° |
| 2026-05-07 14:33 | 34.57239 | 113.47342 | 6740 ft | 216 kts | 19° |
| 2026-05-07 14:33 | 34.58629 | 113.48054 | 6176 ft | 218 kts | 20° |
| 2026-05-07 14:33 | 34.60023 | 113.48775 | 5659 ft | 218 kts | 21° |
| 2026-05-07 14:34 | 34.61429 | 113.49490 | 5337 ft | 220 kts | 21° |
| 2026-05-07 14:34 | 34.62811 | 113.50259 | 5064 ft | 219 kts | 30° |
| 2026-05-07 14:34 | 34.63875 | 113.51570 | 4867 ft | 222 kts | 63° |
| 2026-05-07 14:34 | 34.64107 | 113.53384 | 4753 ft | 217 kts | 92° |
| 2026-05-07 14:35 | 34.63808 | 113.55149 | 4658 ft | 211 kts | 107° |
| 2026-05-07 14:35 | 34.63271 | 113.56772 | 4596 ft | 203 kts | 111° |
| 2026-05-07 14:35 | 34.62737 | 113.58299 | 4523 ft | 196 kts | 111° |
| 2026-05-07 14:35 | 34.62219 | 113.59790 | 4455 ft | 188 kts | 111° |
| 2026-05-07 14:36 | 34.61722 | 113.61223 | 4346 ft | 181 kts | 110° |
| 2026-05-07 14:36 | 34.61241 | 113.62619 | 4203 ft | 177 kts | 110° |
| 2026-05-07 14:36 | 34.60774 | 113.64002 | 4028 ft | 177 kts | 110° |
| 2026-05-07 14:36 | 34.60310 | 113.65384 | 3811 ft | 178 kts | 110° |
| 2026-05-07 14:37 | 34.59836 | 113.66779 | 3558 ft | 180 kts | 111° |
| 2026-05-07 14:37 | 34.58877 | 113.69599 | 3065 ft | 184 kts | 111° |
| 2026-05-07 14:37 | 34.58390 | 113.71033 | 2814 ft | 182 kts | 111° |
| 2026-05-07 14:38 | 34.57924 | 113.72397 | 2611 ft | 169 kts | 110° |
| 2026-05-07 14:38 | 34.57494 | 113.73659 | 2379 ft | 154 kts | 110° |
| 2026-05-07 14:38 | 34.57105 | 113.74802 | 2175 ft | 139 kts | 110° |
| 2026-05-07 14:38 | 34.56749 | 113.75846 | 1991 ft | 129 kts | 109° |
| 2026-05-07 14:39 | 34.56417 | 113.76828 | 1827 ft | 127 kts | 108° |
| 2026-05-07 14:39 | 34.56082 | 113.77819 | 1666 ft | 127 kts | 109° |
| 2026-05-07 14:39 | 34.55745 | 113.78814 | 1485 ft | 128 kts | 108° |
| 2026-05-07 14:39 | 34.55408 | 113.79806 | 1305 ft | 127 kts | 109° |
| 2026-05-07 14:40 | 34.55069 | 113.80797 | 1118 ft | 127 kts | 110° |
| 2026-05-07 14:40 | 34.54731 | 113.81786 | 962 ft | 127 kts | 110° |
| 2026-05-07 14:40 | 34.54393 | 113.82781 | 758 ft | 126 kts | 110° |
| 2026-05-07 14:40 | 34.54064 | 113.83765 | 595 ft | 126 kts | 111° |
| 2026-05-07 14:41 | 34.53747 | 113.84712 | 506 ft | 103 kts | 113° |
| 2026-05-07 14:41 | 34.53573 | 113.85191 | 504 ft | 35 kts | 114° |
| 2026-05-07 14:41 | 34.53477 | 113.85461 | 501 ft | 35 kts | 112° |
| 2026-05-07 14:41 | 34.53385 | 113.85736 | 502 ft | 35 kts | 112° |
| 2026-05-07 14:42 | 34.53249 | 113.85965 | 503 ft | 29 kts | 139° |
| 2026-05-07 14:42 | 34.53127 | 113.86016 | 507 ft | 9 kts | 214° |
| 2026-05-07 14:42 | 34.53121 | 113.85971 | 508 ft | 6 kts | 273° |
| 2026-05-07 14:42 | 34.53136 | 113.85918 | 508 ft | 8 kts | 293° |
| 2026-05-07 14:43 | 34.53160 | 113.85848 | 508 ft | 10 kts | 292° |
| 2026-05-07 14:43 | 34.53190 | 113.85762 | 508 ft | 12 kts | 293° |
| 2026-05-07 14:43 | 34.53217 | 113.85665 | 508 ft | 7 kts | 267° |
| 2026-05-07 14:43 | 34.53200 | 113.85627 | 508 ft | 4 kts | 235° |
| 2026-05-07 14:44 | 34.53179 | 113.85610 | 509 ft | 5 kts | 215° |
| 2026-05-07 14:44 | 34.53148 | 113.85585 | 509 ft | 6 kts | 209° |
| 2026-05-07 14:44 | 34.53102 | 113.85559 | 509 ft | 8 kts | 203° |
| 2026-05-07 14:44 | 34.53041 | 113.85529 | 509 ft | 11 kts | 201° |
| 2026-05-07 14:45 | 34.52966 | 113.85493 | 509 ft | 13 kts | 201° |
| 2026-05-07 14:45 | 34.52879 | 113.85452 | 509 ft | 15 kts | 201° |
| 2026-05-07 14:45 | 34.52796 | 113.85407 | 509 ft | 10 kts | 204° |
| 2026-05-07 14:45 | 34.52751 | 113.85383 | 509 ft | 5 kts | 204° |
| 2026-05-07 14:46 | 34.52714 | 113.85361 | 509 ft | 6 kts | 216° |
| 2026-05-07 14:46 | 34.52708 | 113.85334 | 509 ft | 4 kts | 261° |
| 2026-05-07 14:46 | 34.52712 | 113.85314 | 509 ft | 4 kts | 294° |
| 2026-05-07 14:46 | 34.52735 | 113.85249 | 509 ft | 11 kts | 292° |
| 2026-05-07 14:47 | 34.52742 | 113.85228 | 509 ft | 0 kts | 293° |